Roseau, MN

10:32 PM CST on January 22, 2018 (GMT -0600)
Roseau Municipal-Billberg

Weather History for KROX - October, 2012

Change the Weather History Date:

Friday, October 26, 2012

  Actual Average Record
Temperature  
Mean Temperature 30 °F -  
Max Temperature 33 °F 50 °F 75 °F (1955)
Min Temperature 28 °F 29 °F 10 °F (1949)
Degree Days  
Heating Degree Days 34    
Moisture  
Dew Point 24 °F    
Average Humidity 71    
Maximum Humidity 81    
Minimum Humidity 60    
Precipitation  
Precipitation 0.00 in - - ()
Sea Level Pressure  
Sea Level Pressure 30.13 in    
Wind  
Wind Speed 13 mph (West)    
Max Wind Speed 17 mph    
Max Gust Speed 28 mph    
Visibility 10 miles    
Events Snow    
Averages and records for this station are not official NWS values.
T = Trace of Precipitation, MM = Missing Value Source: NWS Daily Summary

Daily Weather History Graph

Daily Weather History Graph

Search for Another Location

Airport or City:

Trip Planner

Search our weather history database for the weather conditions in past years. The results will help you decide how hot, cold, wet, or windy it might be!

Date:

Astronomy

Oct. 26, 2012 Rise Set
Actual Time 8:01 AM CDT 6:11 PM CDT
Civil Twilight 7:28 AM CDT 6:44 PM CDT
Nautical Twilight 6:51 AM CDT 7:21 PM CDT
Astronomical Twilight 6:14 AM CDT 7:57 PM CDT
Moon 4:38 PM CDT (10/26) 4:45 AM CDT (10/26)
Length of Visible Light 11h 15m
Length of Day
10h 10m
Waxing Gibbous, 91% of the Moon is Illuminated
Oct 26
Waxing Gibbous
Oct 29
Full
Nov 6
Last Quarter
Nov 13
New
Nov 20
First Quarter

Hourly Weather History & Observations

Time (CDT) Temp. Windchill Dew Point Humidity Pressure Visibility Wind Dir Wind Speed Gust Speed Precip Events Conditions
12:14 AM 33.8 °F 23.5 °F 28.4 °F 81% 29.96 in 10.0 mi West 16.1 mph 23.0 mph N/A Snow Light Snow
12:34 AM 33.8 °F 24.3 °F 28.4 °F 81% 29.96 in 7.0 mi West 13.8 mph 24.2 mph N/A Snow Light Snow
1:14 AM 33.8 °F 24.3 °F 28.4 °F 81% 29.98 in 10.0 mi West 13.8 mph 25.3 mph N/A   Overcast
1:34 AM 33.8 °F 23.9 °F 28.4 °F 81% 29.98 in 10.0 mi WNW 15.0 mph 25.3 mph N/A   Overcast
1:55 AM 33.8 °F 23.2 °F 28.4 °F 81% 29.99 in 10.0 mi West 17.3 mph 24.2 mph N/A   Overcast
2:14 AM 33.8 °F 23.5 °F 28.4 °F 81% 30.00 in 10.0 mi West 16.1 mph 25.3 mph N/A   Overcast
2:34 AM 33.8 °F 24.8 °F 28.4 °F 81% 30.00 in 10.0 mi West 12.7 mph 21.9 mph N/A   Overcast
2:55 AM 33.8 °F 24.3 °F 28.4 °F 81% 30.01 in 10.0 mi West 13.8 mph 21.9 mph N/A   Overcast
3:14 AM 33.8 °F 23.5 °F 28.4 °F 81% 30.02 in 10.0 mi West 16.1 mph 23.0 mph N/A   Overcast
3:54 AM 33.8 °F 25.3 °F 26.6 °F 75% 30.03 in 10.0 mi West 11.5 mph 25.3 mph N/A   Overcast
4:14 AM 33.8 °F 24.3 °F 26.6 °F 75% 30.03 in 10.0 mi West 13.8 mph 25.3 mph N/A   Overcast
4:35 AM 33.8 °F 23.9 °F 26.6 °F 75% 30.04 in 10.0 mi West 15.0 mph 19.6 mph N/A   Overcast
4:54 AM 33.8 °F 24.3 °F 26.6 °F 75% 30.04 in 10.0 mi West 13.8 mph 21.9 mph N/A   Overcast
5:14 AM 33.8 °F 24.3 °F 26.6 °F 75% 30.05 in 10.0 mi West 13.8 mph 23.0 mph N/A   Overcast
5:34 AM 33.8 °F 23.5 °F 26.6 °F 75% 30.05 in 10.0 mi West 16.1 mph 24.2 mph N/A   Overcast
5:54 AM 32.0 °F 21.6 °F 26.6 °F 80% 30.06 in 10.0 mi West 15.0 mph 23.0 mph N/A   Overcast
6:14 AM 32.0 °F 21.6 °F 26.6 °F 80% 30.06 in 10.0 mi West 15.0 mph 25.3 mph N/A   Overcast
6:34 AM 32.0 °F 22.1 °F 26.6 °F 80% 30.07 in 10.0 mi West 13.8 mph 24.2 mph N/A   Mostly Cloudy
6:54 AM 32.0 °F 21.6 °F 24.8 °F 75% 30.08 in 10.0 mi West 15.0 mph 21.9 mph N/A   Mostly Cloudy
7:14 AM 32.0 °F 22.1 °F 24.8 °F 75% 30.08 in 10.0 mi West 13.8 mph 23.0 mph N/A   Mostly Cloudy
7:54 AM 32.0 °F 21.6 °F 24.8 °F 75% 30.10 in 10.0 mi West 15.0 mph 23.0 mph N/A   Mostly Cloudy
8:34 AM 32.0 °F 23.0 °F 24.8 °F 75% 30.11 in 10.0 mi West 11.5 mph 24.2 mph N/A   Mostly Cloudy
8:54 AM 32.0 °F 21.6 °F 24.8 °F 75% 30.12 in 10.0 mi West 15.0 mph - N/A   Mostly Cloudy
9:14 AM 32.0 °F 22.1 °F 24.8 °F 75% 30.13 in 10.0 mi West 13.8 mph 21.9 mph N/A   Mostly Cloudy
9:34 AM 32.0 °F 22.5 °F 24.8 °F 75% 30.13 in 10.0 mi West 12.7 mph 19.6 mph N/A   Overcast
9:54 AM 32.0 °F 22.1 °F 24.8 °F 75% 30.13 in 10.0 mi West 13.8 mph 20.7 mph N/A   Overcast
10:15 AM 32.0 °F 21.2 °F 24.8 °F 75% 30.14 in 10.0 mi West 16.1 mph 21.9 mph N/A   Overcast
10:34 AM 32.0 °F 23.0 °F 24.8 °F 75% 30.14 in 10.0 mi WNW 11.5 mph 20.7 mph N/A   Overcast
10:54 AM 32.0 °F 22.1 °F 23.0 °F 69% 30.15 in 10.0 mi West 13.8 mph 20.7 mph N/A   Overcast
11:15 AM 32.0 °F 23.0 °F 24.8 °F 75% 30.15 in 10.0 mi WNW 11.5 mph 23.0 mph N/A   Overcast
11:34 AM 32.0 °F 21.6 °F 24.8 °F 75% 30.16 in 10.0 mi WNW 15.0 mph 21.9 mph N/A   Overcast
11:54 AM 32.0 °F 21.6 °F 23.0 °F 69% 30.17 in 10.0 mi West 15.0 mph 23.0 mph N/A   Mostly Cloudy
12:15 PM 32.0 °F 21.2 °F 21.2 °F 64% 30.17 in 10.0 mi West 16.1 mph 25.3 mph N/A   Scattered Clouds
12:34 PM 32.0 °F 23.0 °F 23.0 °F 69% 30.17 in 10.0 mi West 11.5 mph 24.2 mph N/A   Scattered Clouds
12:54 PM 32.0 °F 22.1 °F 23.0 °F 69% 30.17 in 10.0 mi West 13.8 mph 20.7 mph N/A   Scattered Clouds
1:15 PM 32.0 °F 20.8 °F 21.2 °F 64% 30.17 in 10.0 mi West 17.3 mph 27.6 mph N/A   Scattered Clouds
1:34 PM 33.8 °F 24.3 °F 23.0 °F 65% 30.17 in 10.0 mi West 13.8 mph 17.3 mph N/A   Scattered Clouds
1:54 PM 32.0 °F 21.2 °F 23.0 °F 69% 30.17 in 10.0 mi West 16.1 mph 19.6 mph N/A   Mostly Cloudy
2:15 PM 32.0 °F 21.2 °F 21.2 °F 64% 30.17 in 10.0 mi West 16.1 mph 23.0 mph N/A   Mostly Cloudy
2:34 PM 32.0 °F 22.1 °F 21.2 °F 64% 30.17 in 10.0 mi West 13.8 mph 23.0 mph N/A   Overcast
2:54 PM 33.8 °F 23.9 °F 21.2 °F 60% 30.17 in 10.0 mi West 15.0 mph 20.7 mph N/A   Overcast
3:15 PM 33.8 °F 25.3 °F 21.2 °F 60% 30.17 in 10.0 mi West 11.5 mph 19.6 mph N/A   Overcast
3:34 PM 32.0 °F 23.6 °F 21.2 °F 64% 30.18 in 10.0 mi West 10.4 mph 17.3 mph N/A   Overcast
3:54 PM 33.8 °F 25.8 °F 21.2 °F 60% 30.18 in 10.0 mi West 10.4 mph 17.3 mph N/A   Mostly Cloudy
4:15 PM 32.0 °F 22.5 °F 21.2 °F 64% 30.18 in 7.0 mi West 12.7 mph 16.1 mph N/A   Mostly Cloudy
4:34 PM 32.0 °F 24.2 °F 23.0 °F 69% 30.18 in 10.0 mi WNW 9.2 mph - N/A   Mostly Cloudy
4:54 PM 33.8 °F 25.3 °F 21.2 °F 60% 30.19 in 10.0 mi West 11.5 mph 17.3 mph N/A   Overcast
5:14 PM 32.0 °F 23.6 °F 21.2 °F 64% 30.19 in 10.0 mi West 10.4 mph 18.4 mph N/A   Overcast
5:34 PM 32.0 °F 24.2 °F 21.2 °F 64% 30.18 in 10.0 mi WNW 9.2 mph 16.1 mph N/A   Overcast
5:54 PM 32.0 °F 24.2 °F 21.2 °F 64% 30.19 in 10.0 mi West 9.2 mph 16.1 mph N/A   Mostly Cloudy
6:14 PM 30.2 °F 24.3 °F 21.2 °F 69% 30.19 in 10.0 mi West 5.8 mph - N/A   Scattered Clouds
6:34 PM 30.2 °F 23.4 °F 19.4 °F 64% 30.19 in 10.0 mi West 6.9 mph - N/A   Clear
6:54 PM 30.2 °F 24.3 °F 19.4 °F 64% 30.20 in 10.0 mi WSW 5.8 mph - N/A   Clear
7:14 PM 30.2 °F 25.4 °F 21.2 °F 69% 30.20 in 10.0 mi WSW 4.6 mph - N/A   Clear
7:34 PM 30.2 °F 25.4 °F 19.4 °F 64% 30.20 in 10.0 mi WSW 4.6 mph - N/A   Scattered Clouds
7:54 PM 30.2 °F 24.3 °F 21.2 °F 69% 30.21 in 10.0 mi WSW 5.8 mph - N/A   Scattered Clouds
8:14 PM 30.2 °F 24.3 °F 21.2 °F 69% 30.21 in 10.0 mi WSW 5.8 mph - N/A   Mostly Cloudy
8:34 PM 30.2 °F 24.3 °F 21.2 °F 69% 30.21 in 10.0 mi SW 5.8 mph - N/A   Overcast
8:54 PM 28.4 °F 22.2 °F 21.2 °F 74% 30.21 in 10.0 mi SW 5.8 mph - N/A   Scattered Clouds
9:14 PM 28.4 °F 22.2 °F 21.2 °F 74% 30.20 in 10.0 mi SW 5.8 mph - N/A   Scattered Clouds
9:34 PM 28.4 °F 22.2 °F 21.2 °F 74% 30.20 in 10.0 mi WSW 5.8 mph - N/A   Overcast
9:54 PM 30.2 °F 23.4 °F 21.2 °F 69% 30.20 in 10.0 mi SW 6.9 mph - N/A   Overcast
10:14 PM 30.2 °F 24.3 °F 21.2 °F 69% 30.20 in 10.0 mi SW 5.8 mph - N/A   Overcast
10:34 PM 30.2 °F 22.6 °F 21.2 °F 69% 30.20 in 10.0 mi WSW 8.1 mph - N/A   Overcast
10:54 PM 30.2 °F 23.4 °F 21.2 °F 69% 30.20 in 10.0 mi WSW 6.9 mph - N/A   Overcast
11:34 PM 30.2 °F 23.4 °F 21.2 °F 69% 30.20 in 10.0 mi WSW 6.9 mph - N/A   Overcast
11:54 PM 30.2 °F 24.3 °F 21.2 °F 69% 30.20 in 10.0 mi WSW 5.8 mph - N/A   Overcast